Time;durP1;ratioP1;P1;durP2;ratioP2;P2;SDS_P1;SDS_P2;PMS_P1;PMS_P2;Temp;Humidity;BMP_temperature;BMP_pressure;BME280_temperature;BME280_humidity;BME280_pressure;Samples;Min_cycle;Max_cycle;Signal;HPM_P1;HPM_P2
2023/05/30 00:00:53;;;;;;;6.35;4.50;;;;;;;;;;5061481;28;20033;-79
2023/05/30 00:03:18;;;;;;;6.25;4.38;;;15.20;88.60;;;;;;5071124;28;20603;-78
2023/05/30 00:05:44;;;;;;;6.15;4.38;;;15.10;90.10;;;;;;5072548;28;20086;-78
2023/05/30 00:08:10;;;;;;;8.10;4.45;;;15.00;90.30;;;;;;5070525;28;20035;-80
2023/05/30 00:10:36;;;;;;;7.28;4.43;;;;;;;;;;5069336;28;20055;-81
2023/05/30 00:13:02;;;;;;;8.25;4.38;;;;;;;;;;5065113;28;20461;-74
2023/05/30 00:15:28;;;;;;;6.53;4.53;;;;;;;;;;5072047;28;20035;-78
2023/05/30 00:17:55;;;;;;;5.28;4.25;;;;;;;;;;5078200;28;20111;-81
2023/05/30 00:20:22;;;;;;;6.10;4.70;;;;;;;;;;5070435;28;20036;-79
2023/05/30 00:22:48;;;;;;;4.80;3.67;;;;;;;;;;5066582;28;20062;-80
2023/05/30 00:25:16;;;;;;;6.72;4.00;;;;;;;;;;5070419;28;20028;-81
2023/05/30 00:27:42;;;;;;;6.50;4.85;;;;;;;;;;5074431;28;20024;-82
2023/05/30 00:30:08;;;;;;;7.05;4.13;;;;;;;;;;5070158;28;20512;-81
2023/05/30 00:32:35;;;;;;;9.38;3.97;;;;;;;;;;5067215;28;20033;-80
2023/05/30 00:35:08;;;;;;;8.90;4.63;;;;;;;;;;5076608;28;20477;-77
2023/05/30 00:37:34;;;;;;;8.20;4.65;;;;;;;;;;5071754;28;20058;-79
2023/05/30 00:40:00;;;;;;;6.68;4.22;;;;;;;;;;5070590;28;20473;-74
2023/05/30 00:42:27;;;;;;;6.32;4.25;;;;;;;;;;5071282;28;20031;-81
2023/05/30 00:44:53;;;;;;;6.13;4.13;;;;;;;;;;5071021;28;20104;-81
2023/05/30 00:47:19;;;;;;;7.15;4.28;;;;;;;;;;5071439;28;20908;-80
2023/05/30 00:49:46;;;;;;;7.97;4.10;;;;;;;;;;5062529;28;20470;-79
2023/05/30 00:52:12;;;;;;;6.05;4.25;;;;;;;;;;5076936;28;20031;-81
2023/05/30 00:54:42;;;;;;;7.78;5.00;;;;;;;;;;5081868;28;20027;-80
2023/05/30 00:57:08;;;;;;;;;;;;;;;;;;5071798;28;20074;-77
2023/05/30 00:59:35;;;;;;;5.43;4.43;;;;;;;;;;5064065;28;19913;-79
2023/05/30 01:02:01;;;;;;;4.80;3.75;;;;;;;;;;5066541;28;20048;-73
2023/05/30 01:04:27;;;;;;;7.90;3.85;;;;;;;;;;5071247;28;20458;-78
2023/05/30 01:06:54;;;;;;;5.75;4.22;;;;;;;;;;5072031;28;20107;-79
2023/05/30 01:09:20;;;;;;;10.60;4.80;;;;;;;;;;5077760;28;20020;-80
2023/05/30 01:12:02;;;;;;;6.88;4.22;;;;;;;;;;5073845;28;20024;-79
2023/05/30 01:14:31;;;;;;;6.07;3.80;;;;;;;;;;5082735;28;20104;-81
2023/05/30 01:17:00;;;;;;;6.38;3.88;;;;;;;;;;5076791;28;20385;-73
2023/05/30 01:19:45;;;;;;;8.30;3.97;;;;;;;;;;5073300;28;20025;-78
2023/05/30 01:22:32;;;;;;;8.45;3.83;;;;;;;;;;5072764;28;20116;-80
2023/05/30 01:25:07;;;;;;;5.07;3.90;;;;;;;;;;5077178;28;20040;-73
2023/05/30 01:27:40;;;;;;;5.75;3.97;;;;;;;;;;5079634;28;20470;-78
2023/05/30 01:30:08;;;;;;;8.77;4.07;;;;;;;;;;5057944;28;20031;-79
2023/05/30 01:32:34;;;;;;;6.88;3.75;;;;;;;;;;5071866;28;20028;-78
2023/05/30 01:35:00;;;;;;;7.30;3.90;;;;;;;;;;5070685;28;20025;-72
2023/05/30 01:37:26;;;;;;;6.90;4.72;;;;;;;;;;5071550;28;20385;-76
2023/05/30 01:39:52;;;;;;;8.40;4.47;;;;;;;;;;5065479;28;20028;-78
2023/05/30 01:42:21;;;;;;;6.45;4.15;;;;;;;;;;5073340;28;20016;-80
2023/05/30 01:44:53;;;;;;;7.75;3.75;;;;;;;;;;5071140;28;20108;-78
2023/05/30 01:47:27;;;;;;;6.22;3.58;;;;;;;;;;5070066;28;20059;-78
2023/05/30 01:49:55;;;;;;;5.65;3.50;;;;;;;;;;5077578;28;20095;-78
2023/05/30 01:52:25;;;;;;;5.72;3.63;;;;;;;;;;5076109;28;20052;-77
2023/05/30 01:54:53;;;;;;;4.43;3.43;;;;;;;;;;5075533;28;20020;-79
2023/05/30 01:57:19;;;;;;;6.03;3.58;;;;;;;;;;5079447;28;20277;-79
2023/05/30 01:59:47;;;;;;;9.75;4.47;;;13.90;99.80;;;;;;5083367;28;20056;-78
2023/05/30 02:02:12;;;;;;;9.25;4.00;;;13.80;99.90;;;;;;5102618;28;20053;-78
2023/05/30 02:04:38;;;;;;;6.80;3.80;;;13.60;99.90;;;;;;5090376;28;20461;-77
2023/05/30 02:07:04;;;;;;;6.78;4.32;;;13.60;99.90;;;;;;5085337;28;20032;-77
2023/05/30 02:09:30;;;;;;;7.20;3.92;;;13.60;99.90;;;;;;5100758;28;20016;-73
2023/05/30 02:11:55;;;;;;;6.30;4.20;;;13.50;99.90;;;;;;5082473;28;20028;-78
2023/05/30 02:14:22;;;;;;;5.97;4.18;;;13.50;99.90;;;;;;5098674;28;20035;-78
2023/05/30 02:16:48;;;;;;;6.50;4.18;;;13.40;99.90;;;;;;5102984;28;20042;-79
2023/05/30 02:19:14;;;;;;;6.65;4.32;;;13.40;99.90;;;;;;5103670;28;20012;-78
2023/05/30 02:21:40;;;;;;;5.20;3.72;;;13.40;99.90;;;;;;5106592;28;20089;-76
2023/05/30 02:24:06;;;;;;;8.88;4.30;;;13.40;99.90;;;;;;5104183;28;20032;-77
2023/05/30 02:26:34;;;;;;;8.38;4.05;;;13.30;99.90;;;;;;5107244;28;20071;-75
2023/05/30 02:29:00;;;;;;;6.90;4.28;;;13.30;99.90;;;;;;5106273;28;20063;-73
2023/05/30 02:31:25;;;;;;;7.38;4.38;;;13.30;99.90;;;;;;5104945;28;20033;-80
2023/05/30 02:33:51;;;;;;;10.15;4.55;;;13.30;99.90;;;;;;5107840;28;20008;-76
2023/05/30 02:36:17;;;;;;;7.45;4.22;;;13.30;99.90;;;;;;5107779;28;20627;-77
2023/05/30 02:38:42;;;;;;;8.10;4.05;;;13.30;99.90;;;;;;5099869;28;20016;-79
2023/05/30 02:41:08;;;;;;;6.90;4.35;;;13.30;99.90;;;;;;5083054;28;20024;-72
2023/05/30 02:43:33;;;;;;;7.03;4.30;;;13.30;99.90;;;;;;5082061;28;20042;-80
2023/05/30 02:46:01;;;;;;;6.60;4.10;;;13.20;99.90;;;;;;5080880;28;20033;-73
2023/05/30 02:48:26;;;;;;;7.38;4.40;;;13.20;99.90;;;;;;5081661;28;20032;-80
2023/05/30 02:50:52;;;;;;;8.95;4.43;;;13.20;99.90;;;;;;5072895;28;20105;-81
2023/05/30 02:53:17;;;;;;;7.70;3.90;;;13.20;99.90;;;;;;5080869;28;20016;-80
2023/05/30 02:55:43;;;;;;;6.45;4.03;;;13.10;99.90;;;;;;5076847;28;20110;-80
2023/05/30 02:58:11;;;;;;;7.30;4.88;;;13.10;99.90;;;;;;5072133;28;20041;-80
2023/05/30 03:00:37;;;;;;;6.78;4.20;;;13.10;99.90;;;;;;5072976;28;20040;-80
2023/05/30 03:03:03;;;;;;;8.10;4.40;;;13.00;99.90;;;;;;5072652;28;20037;-78
2023/05/30 03:05:28;;;;;;;6.80;3.67;;;13.00;99.90;;;;;;5079481;28;20037;-81
2023/05/30 03:07:54;;;;;;;6.53;4.45;;;13.00;99.90;;;;;;5073694;28;20354;-78
2023/05/30 03:10:20;;;;;;;7.75;4.72;;;12.90;99.90;;;;;;5067634;28;20119;-77
2023/05/30 03:12:45;;;;;;;7.55;4.40;;;12.90;99.90;;;;;;5073560;28;20029;-79
2023/05/30 03:15:11;;;;;;;7.43;4.68;;;12.90;99.90;;;;;;5072345;28;20299;-77
2023/05/30 03:17:38;;;;;;;8.35;4.38;;;12.90;99.90;;;;;;5073168;28;20052;-78
2023/05/30 03:20:06;;;;;;;8.63;4.50;;;12.90;99.90;;;;;;5072265;28;20060;-78
2023/05/30 03:22:33;;;;;;;7.28;4.18;;;12.90;99.90;;;;;;5076629;28;20415;-78
2023/05/30 03:24:59;;;;;;;12.10;4.30;;;12.80;99.90;;;;;;5074578;28;20032;-72
2023/05/30 03:27:24;;;;;;;5.45;4.10;;;12.80;99.90;;;;;;5073572;28;20036;-76
2023/05/30 03:29:50;;;;;;;7.25;4.55;;;12.80;99.90;;;;;;5075186;28;20028;-75
2023/05/30 03:32:15;;;;;;;7.10;4.82;;;12.90;99.90;;;;;;5070914;28;20062;-77
2023/05/30 03:34:41;;;;;;;7.90;4.60;;;12.90;99.90;;;;;;5073080;28;20027;-76
2023/05/30 03:37:07;;;;;;;7.47;4.60;;;12.80;99.90;;;;;;5072210;28;20574;-77
2023/05/30 03:39:33;;;;;;;6.65;4.03;;;12.80;99.90;;;;;;5080939;28;20021;-77
2023/05/30 03:42:01;;;;;;;8.23;3.95;;;12.80;99.90;;;;;;5066997;28;20034;-71
2023/05/30 03:44:27;;;;;;;7.38;4.10;;;12.80;99.90;;;;;;5072392;28;20025;-76
2023/05/30 03:46:52;;;;;;;6.65;3.92;;;12.80;99.90;;;;;;5072342;28;20090;-77
2023/05/30 03:49:18;;;;;;;7.93;4.22;;;12.80;99.90;;;;;;5071218;28;20023;-78
2023/05/30 03:51:43;;;;;;;5.68;4.22;;;12.70;99.90;;;;;;5072123;28;20048;-76
2023/05/30 03:54:09;;;;;;;7.43;4.78;;;12.70;99.90;;;;;;5079466;28;20103;-77
2023/05/30 03:56:35;;;;;;;7.28;4.45;;;12.70;99.90;;;;;;5081649;28;20099;-78
2023/05/30 03:59:00;;;;;;;7.32;4.68;;;12.80;99.90;;;;;;5071178;28;20457;-72
2023/05/30 04:01:27;;;;;;;8.48;4.85;;;12.80;99.90;;;;;;5065097;28;20031;-80
2023/05/30 04:03:53;;;;;;;7.60;4.22;;;12.80;99.90;;;;;;5069757;28;20086;-80
2023/05/30 04:06:19;;;;;;;10.10;4.85;;;12.80;99.90;;;;;;5071728;28;20820;-81
2023/05/30 04:08:44;;;;;;;7.93;4.60;;;12.90;99.90;;;;;;5072002;28;20036;-81
2023/05/30 04:11:10;;;;;;;7.90;4.32;;;12.90;99.90;;;;;;5069986;28;20029;-80
2023/05/30 04:13:36;;;;;;;7.32;4.20;;;13.00;99.90;;;;;;5069260;28;20517;-81
2023/05/30 04:16:01;;;;;;;7.65;4.07;;;13.00;99.90;;;;;;5071545;28;20028;-79
2023/05/30 04:18:27;;;;;;;7.05;4.68;;;13.10;99.90;;;;;;5070827;28;20111;-80
2023/05/30 04:20:53;;;;;;;7.65;4.50;;;13.20;99.90;;;;;;5072144;28;20031;-79
2023/05/30 04:23:19;;;;;;;6.55;4.35;;;13.20;99.90;;;;;;5069741;28;20857;-80
2023/05/30 04:25:44;;;;;;;10.85;4.40;;;13.20;99.90;;;;;;5060441;28;20032;-80
2023/05/30 04:28:16;;;;;;;7.07;4.32;;;13.30;99.90;;;;;;5076228;28;20103;-80
2023/05/30 04:30:48;;;;;;;7.65;4.47;;;13.40;99.90;;;;;;5071625;28;20118;-81
2023/05/30 04:33:18;;;;;;;9.30;4.68;;;13.40;99.90;;;;;;5068879;28;20028;-81
2023/05/30 04:35:44;;;;;;;6.15;4.55;;;13.50;99.90;;;;;;5071982;28;20030;-81
2023/05/30 04:38:10;;;;;;;7.25;4.50;;;13.50;99.90;;;;;;5070683;28;20044;-81
2023/05/30 04:40:36;;;;;;;9.13;5.03;;;13.60;99.90;;;;;;5059043;28;20100;-80
2023/05/30 04:43:02;;;;;;;10.38;5.38;;;13.60;99.90;;;;;;5068221;28;20032;-74
2023/05/30 04:45:36;;;;;;;9.02;4.10;;;13.70;99.90;;;;;;5072070;28;20112;-81
2023/05/30 04:48:03;;;;;;;7.63;4.47;;;13.90;99.90;;;;;;5070664;28;20028;-74
2023/05/30 04:50:29;;;;;;;7.50;4.22;;;14.00;99.90;;;;;;5071451;28;20056;-80
2023/05/30 04:52:55;;;;;;;7.70;4.30;;;14.00;99.90;;;;;;5071069;28;20046;-78
2023/05/30 04:55:23;;;;;;;8.80;4.50;;;14.10;99.90;;;;;;5070594;28;20076;-78
2023/05/30 04:57:49;;;;;;;8.52;4.68;;;14.20;99.90;;;;;;5071740;28;20032;-79
2023/05/30 05:00:15;;;;;;;7.72;4.80;;;14.30;99.90;;;;;;5072022;28;20085;-78
2023/05/30 05:02:42;;;;;;;6.30;4.55;;;14.40;99.90;;;;;;5059074;28;20095;-80
2023/05/30 05:05:08;;;;;;;8.65;4.72;;;14.50;99.90;;;;;;5070415;28;20098;-77
2023/05/30 05:07:34;;;;;;;6.80;4.40;;;14.70;99.90;;;;;;5071736;28;20040;-79
2023/05/30 05:10:00;;;;;;;8.57;4.82;;;14.80;99.90;;;;;;5069650;28;20031;-75
2023/05/30 05:12:25;;;;;;;9.27;4.88;;;14.90;99.90;;;;;;5059576;28;20032;-79
2023/05/30 05:14:54;;;;;;;8.30;4.53;;;15.00;99.90;;;;;;5070795;28;20079;-78
2023/05/30 05:17:20;;;;;;;7.00;4.13;;;15.20;99.90;;;;;;5083250;28;20025;-79
2023/05/30 05:19:45;;;;;;;11.40;5.55;;;15.30;99.90;;;;;;5063766;28;20029;-82
2023/05/30 05:22:11;;;;;;;7.30;4.70;;;15.40;99.90;;;;;;5060450;28;20079;-71
2023/05/30 05:24:36;;;;;;;11.48;4.63;;;15.50;99.90;;;;;;5060650;28;20470;-70
2023/05/30 05:27:02;;;;;;;10.88;5.38;;;15.60;99.90;;;;;;5070098;28;20036;-74
2023/05/30 05:29:27;;;;;;;9.48;4.47;;;15.70;99.90;;;;;;5074274;28;20036;-74
2023/05/30 05:31:53;;;;;;;6.57;3.60;;;15.70;99.90;;;;;;5067041;28;20454;-72
2023/05/30 05:34:19;;;;;;;11.95;4.35;;;15.70;99.90;;;;;;5080681;28;20043;-71
2023/05/30 05:36:44;;;;;;;8.00;4.18;;;15.80;99.90;;;;;;5060045;28;20041;-74
2023/05/30 05:39:10;;;;;;;9.15;4.13;;;15.90;99.90;;;;;;5063232;28;20098;-70
2023/05/30 05:41:35;;;;;;;10.63;4.53;;;16.10;99.90;;;;;;5074614;28;20036;-73
2023/05/30 05:44:01;;;;;;;10.25;4.30;;;16.20;99.90;;;;;;5069594;28;20407;-78
2023/05/30 05:46:27;;;;;;;8.38;4.30;;;16.20;99.90;;;;;;5066999;28;20082;-73
2023/05/30 05:48:54;;;;;;;9.00;4.57;;;16.30;99.90;;;;;;5073303;28;20471;-74
2023/05/30 05:51:20;;;;;;;8.60;5.05;;;16.30;99.90;;;;;;5073083;28;20445;-71
2023/05/30 05:53:46;;;;;;;9.23;4.28;;;16.30;99.90;;;;;;5075820;28;20028;-74
2023/05/30 05:56:12;;;;;;;8.63;4.03;;;16.40;99.90;;;;;;5071748;28;20086;-73
2023/05/30 05:58:37;;;;;;;10.02;4.70;;;16.50;99.90;;;;;;5069307;28;20105;-74
2023/05/30 06:01:03;;;;;;;9.18;4.70;;;16.60;99.90;;;;;;5072880;28;20078;-74
2023/05/30 06:03:30;;;;;;;7.32;4.20;;;16.70;99.90;;;;;;5069222;28;20061;-73
2023/05/30 06:05:56;;;;;;;10.48;4.75;;;16.70;99.90;;;;;;5070469;28;20078;-73
2023/05/30 06:08:21;;;;;;;9.93;4.45;;;16.80;99.90;;;;;;5071707;28;20024;-71
2023/05/30 06:10:47;;;;;;;10.23;4.90;;;16.80;99.90;;;;;;5073279;28;20432;-72
2023/05/30 06:13:13;;;;;;;6.82;3.83;;;16.70;99.90;;;;;;5069465;28;20035;-75
2023/05/30 06:15:38;;;;;;;8.50;4.35;;;16.70;99.90;;;;;;5074954;28;20112;-75
2023/05/30 06:18:04;;;;;;;9.02;4.80;;;16.80;99.90;;;;;;5072769;28;20044;-75
2023/05/30 06:20:30;;;;;;;8.40;4.75;;;16.90;99.90;;;;;;5073605;28;20033;-74
2023/05/30 06:22:55;;;;;;;10.48;4.35;;;17.00;99.60;;;;;;5046375;28;20083;-75
2023/05/30 06:25:21;;;;;;;6.95;4.45;;;17.00;99.60;;;;;;5072000;28;20054;-77
2023/05/30 06:27:47;;;;;;;7.63;4.93;;;17.10;99.40;;;;;;5065125;28;20110;-76
2023/05/30 06:30:13;;;;;;;11.07;4.85;;;17.10;99.50;;;;;;5066776;28;20025;-76
2023/05/30 06:32:38;;;;;;;7.97;4.43;;;17.20;99.30;;;;;;5069498;28;20085;-76
2023/05/30 06:35:04;;;;;;;6.25;3.92;;;17.20;99.20;;;;;;5074038;28;20106;-76
2023/05/30 06:37:30;;;;;;;11.85;4.30;;;17.30;98.80;;;;;;5080538;28;20119;-75
2023/05/30 06:39:56;;;;;;;9.23;4.00;;;17.30;99.00;;;;;;5068777;28;20115;-76
2023/05/30 06:42:21;;;;;;;8.52;4.30;;;17.40;99.00;;;;;;5066396;28;20028;-76
2023/05/30 06:44:47;;;;;;;9.95;4.32;;;17.50;98.40;;;;;;5068384;28;20033;-75
2023/05/30 06:47:12;;;;;;;7.07;4.20;;;17.50;98.40;;;;;;5073900;28;20095;-76
2023/05/30 06:49:38;;;;;;;8.68;4.30;;;17.60;98.40;;;;;;5063599;28;20032;-75
2023/05/30 06:52:04;;;;;;;9.25;4.30;;;17.70;98.40;;;;;;5076554;28;20059;-76
2023/05/30 06:54:30;;;;;;;14.00;4.38;;;17.70;98.00;;;;;;5075216;28;20111;-75
2023/05/30 06:57:00;;;;;;;10.57;4.60;;;17.70;97.80;;;;;;5085295;28;20043;-76
2023/05/30 06:59:25;;;;;;;9.68;4.35;;;17.80;97.70;;;;;;5075595;28;20071;-76
2023/05/30 07:01:52;;;;;;;9.63;4.35;;;17.70;98.00;;;;;;5064722;28;20111;-76
2023/05/30 07:04:17;;;;;;;10.43;4.70;;;17.80;98.10;;;;;;5067170;28;20646;-76
2023/05/30 07:06:43;;;;;;;12.52;5.28;;;17.90;97.90;;;;;;5081360;28;20020;-77
2023/05/30 07:09:08;;;;;;;8.25;4.82;;;18.00;97.90;;;;;;5071309;28;20028;-77
2023/05/30 07:11:34;;;;;;;9.90;5.00;;;18.00;97.80;;;;;;5072646;28;20100;-77
2023/05/30 07:14:00;;;;;;;6.65;4.03;;;18.10;97.50;;;;;;5071948;28;20024;-78
2023/05/30 07:16:25;;;;;;;12.98;5.35;;;18.10;97.00;;;;;;5072364;28;20385;-77
2023/05/30 07:18:52;;;;;;;12.57;4.47;;;18.10;97.50;;;;;;5071542;28;20033;-77
2023/05/30 07:21:17;;;;;;;8.52;4.25;;;18.20;96.70;;;;;;5059664;28;20017;-78
2023/05/30 07:23:43;;;;;;;11.60;4.47;;;18.30;96.90;;;;;;5067621;28;20032;-77
2023/05/30 07:26:08;;;;;;;11.27;4.88;;;18.30;96.80;;;;;;5070467;28;20033;-77
2023/05/30 07:28:34;;;;;;;11.02;4.68;;;18.40;96.60;;;;;;5079661;28;20033;-76
2023/05/30 07:31:00;;;;;;;14.02;4.35;;;18.30;96.90;;;;;;5069810;28;20074;-75
2023/05/30 07:33:25;;;;;;;7.65;4.53;;;18.30;96.70;;;;;;5071672;28;20078;-76
2023/05/30 07:35:51;;;;;;;9.70;4.07;;;18.40;96.80;;;;;;5075904;28;20492;-75
2023/05/30 07:38:16;;;;;;;7.82;4.07;;;18.40;96.70;;;;;;5070128;28;20052;-77
2023/05/30 07:40:42;;;;;;;12.43;4.90;;;18.40;96.70;;;;;;5071396;28;20150;-77
2023/05/30 07:43:08;;;;;;;7.95;4.18;;;18.50;96.70;;;;;;5070840;28;20025;-76
2023/05/30 07:45:33;;;;;;;15.18;3.80;;;18.60;96.60;;;;;;5071002;28;20016;-76
2023/05/30 07:47:59;;;;;;;10.48;4.95;;;18.70;96.60;;;;;;5071195;28;20742;-77
2023/05/30 07:50:25;;;;;;;8.50;4.70;;;18.70;96.20;;;;;;5065251;28;20045;-75
2023/05/30 07:52:50;;;;;;;14.10;4.65;;;18.60;96.40;;;;;;5055955;28;20100;-75
2023/05/30 07:55:16;;;;;;;12.13;3.83;;;18.60;96.30;;;;;;5056361;28;20040;-76
2023/05/30 07:57:41;;;;;;;11.35;4.00;;;18.60;96.50;;;;;;5051859;28;20533;-77
2023/05/30 08:00:10;;;;;;;9.68;4.18;;;18.70;96.80;;;;;;5050243;28;20537;-78
2023/05/30 08:02:36;;;;;;;13.23;4.43;;;18.80;96.00;;;;;;5051966;28;20109;-77
2023/05/30 08:05:02;;;;;;;7.90;4.22;;;18.80;95.80;;;;;;5050524;28;20021;-77
2023/05/30 08:07:28;;;;;;;10.32;4.13;;;18.70;96.20;;;;;;5051667;28;20108;-76
2023/05/30 08:09:53;;;;;;;10.93;3.97;;;18.90;96.10;;;;;;5051430;28;20117;-77
2023/05/30 08:12:20;;;;;;;12.43;4.45;;;19.00;96.00;;;;;;5047706;28;20594;-77
2023/05/30 08:14:47;;;;;;;10.18;3.97;;;19.10;95.40;;;;;;5044973;28;20025;-77
2023/05/30 08:17:15;;;;;;;11.75;4.43;;;19.20;94.60;;;;;;5038069;28;20467;-77
2023/05/30 08:19:42;;;;;;;10.43;4.22;;;19.10;95.00;;;;;;5051299;28;20025;-77
2023/05/30 08:22:08;;;;;;;7.40;4.03;;;19.30;94.90;;;;;;5056565;28;20104;-77
2023/05/30 08:24:35;;;;;;;7.13;3.80;;;19.40;94.60;;;;;;5051104;28;20425;-74
2023/05/30 08:27:01;;;;;;;12.98;4.85;;;19.60;94.50;;;;;;5050818;28;20029;-76
2023/05/30 08:29:27;;;;;;;9.63;4.35;;;19.80;93.90;;;;;;5051823;28;20087;-75
2023/05/30 08:31:53;;;;;;;10.32;4.20;;;20.00;93.50;;;;;;5051200;28;20078;-76
2023/05/30 08:34:18;;;;;;;9.32;3.80;;;20.20;92.70;;;;;;5049880;28;20029;-75
2023/05/30 08:36:44;;;;;;;12.68;3.75;;;20.00;92.50;;;;;;5049816;28;20029;-75
2023/05/30 08:39:12;;;;;;;10.05;4.75;;;20.00;92.40;;;;;;5048943;28;20089;-75
2023/05/30 08:41:37;;;;;;;9.38;4.50;;;20.10;92.30;;;;;;5050806;28;20458;-75
2023/05/30 08:44:03;;;;;;;8.40;4.38;;;20.30;92.00;;;;;;5049580;28;20032;-76
2023/05/30 08:46:29;;;;;;;7.60;3.92;;;20.30;92.40;;;;;;5047506;28;20036;-75
2023/05/30 08:48:55;;;;;;;9.80;4.63;;;20.30;92.00;;;;;;5050448;28;20045;-74
2023/05/30 08:51:25;;;;;;;9.73;4.30;;;20.30;91.80;;;;;;5062875;28;20131;-75
2023/05/30 08:54:00;;;;;;;9.50;4.57;;;20.20;91.70;;;;;;5081385;28;20027;-74
2023/05/30 08:56:32;;;;;;;10.05;4.18;;;20.30;91.60;;;;;;5070808;28;20032;-74
2023/05/30 08:59:00;;;;;;;10.13;3.97;;;20.30;91.70;;;;;;5069732;28;20024;-72
2023/05/30 09:01:27;;;;;;;25.00;4.03;;;20.40;91.50;;;;;;5069901;28;20081;-75
2023/05/30 09:03:54;;;;;;;15.00;4.70;;;20.50;91.50;;;;;;5069346;28;20028;-75
2023/05/30 09:06:21;;;;;;;13.50;4.18;;;20.70;91.40;;;;;;5073490;28;20574;-73
2023/05/30 09:08:51;;;;;;;7.57;4.25;;;20.80;91.10;;;;;;5074377;28;20043;-73
2023/05/30 09:11:18;;;;;;;18.42;4.07;;;21.00;90.80;;;;;;5074045;28;20017;-73
2023/05/30 09:13:45;;;;;;;29.05;5.15;;;21.10;90.90;;;;;;5074659;28;20038;-75
2023/05/30 09:16:11;;;;;;;11.80;4.22;;;21.30;90.70;;;;;;5074194;28;20105;-75
2023/05/30 09:18:36;;;;;;;9.27;4.05;;;21.30;91.30;;;;;;5073808;28;20071;-74
2023/05/30 09:21:03;;;;;;;34.88;5.68;;;21.40;90.50;;;;;;5072916;28;20377;-74
2023/05/30 09:23:29;;;;;;;8.68;3.85;;;21.30;90.00;;;;;;5074215;28;20109;-75
2023/05/30 09:25:57;;;;;;;6.82;4.05;;;21.40;90.20;;;;;;5073428;28;20091;-74
2023/05/30 09:28:28;;;;;;;10.95;4.03;;;21.50;89.80;;;;;;5076800;28;20032;-74
2023/05/30 09:31:00;;;;;;;7.93;4.20;;;21.50;90.10;;;;;;5073712;28;20078;-75
2023/05/30 09:33:47;;;;;;;9.25;3.95;;;21.50;89.60;;;;;;5073592;28;20020;-74
2023/05/30 09:36:18;;;;;;;8.90;4.00;;;21.60;89.20;;;;;;5073345;28;20469;-74
2023/05/30 09:38:58;;;;;;;8.25;4.10;;;21.60;89.40;;;;;;5061433;28;20032;-74
2023/05/30 09:41:28;;;;;;;10.57;4.43;;;21.50;88.80;;;;;;5072951;28;20032;-74
2023/05/30 09:43:55;;;;;;;11.02;4.13;;;21.40;88.40;;;;;;5072983;28;20024;-73
2023/05/30 09:46:23;;;;;;;11.57;3.70;;;21.40;88.10;;;;;;5073373;28;20063;-74
2023/05/30 09:48:49;;;;;;;9.18;4.38;;;21.40;88.70;;;;;;5073199;28;20448;-75
2023/05/30 09:51:15;;;;;;;14.45;4.32;;;21.60;89.10;;;;;;5073013;28;20123;-76
2023/05/30 09:54:03;;;;;;;9.25;3.53;;;21.80;87.20;;;;;;5081583;28;20082;-76
2023/05/30 09:56:37;;;;;;;9.73;4.20;;;21.90;87.10;;;;;;5071977;28;20102;-75
2023/05/30 09:59:07;;;;;;;12.13;4.22;;;22.10;87.70;;;;;;5076920;28;20032;-86
2023/05/30 10:02:00;;;;;;;11.57;4.03;;;22.20;85.60;;;;;;5075278;28;20025;-75
2023/05/30 10:04:26;;;;;;;10.63;4.53;;;22.40;85.70;;;;;;5070342;28;20497;-75
2023/05/30 10:06:53;;;;;;;7.65;3.75;;;22.40;85.30;;;;;;5073552;28;20025;-75
2023/05/30 10:09:20;;;;;;;9.85;3.75;;;22.50;84.50;;;;;;5072360;28;20556;-75
2023/05/30 10:11:47;;;;;;;10.75;4.07;;;22.60;83.50;;;;;;5073540;28;20021;-75
2023/05/30 10:14:13;;;;;;;12.55;4.28;;;22.70;84.20;;;;;;5072562;28;20021;-75
2023/05/30 10:16:48;;;;;;;9.43;3.63;;;22.70;83.40;;;;;;5072486;28;20025;-76
2023/05/30 10:19:17;;;;;;;5.72;3.60;;;22.70;82.60;;;;;;5072622;28;20035;-79
2023/05/30 10:21:44;;;;;;;8.57;4.07;;;22.70;82.40;;;;;;5073832;28;20078;-78
2023/05/30 10:24:13;;;;;;;10.80;4.32;;;22.50;82.30;;;;;;5073543;28;20048;-78
2023/05/30 10:26:48;;;;;;;7.25;3.55;;;22.50;82.60;;;;;;5079263;28;20025;-81
2023/05/30 10:29:14;;;;;;;7.20;4.28;;;22.50;82.70;;;;;;5073605;28;20035;-79
2023/05/30 10:31:41;;;;;;;9.13;3.53;;;22.60;82.80;;;;;;5073881;28;20116;-80
2023/05/30 10:34:11;;;;;;;8.75;3.72;;;22.80;82.50;;;;;;5072115;28;20079;-78
2023/05/30 10:36:41;;;;;;;;;;;22.90;80.30;;;;;;5056562;28;20028;-81
2023/05/30 10:39:16;;;;;;;;;;;23.00;81.80;;;;;;5073228;28;20391;-82
2023/05/30 10:42:01;;;;;;;15.73;4.10;;;23.10;81.70;;;;;;5073766;28;19912;-81
2023/05/30 10:44:32;;;;;;;8.40;3.85;;;23.40;81.30;;;;;;5073013;28;20028;-80
2023/05/30 10:47:39;;;;;;;8.45;4.25;;;23.50;80.40;;;;;;5072570;28;20021;-77
2023/05/30 10:50:12;;;;;;;8.38;3.97;;;23.20;80.90;;;;;;5071980;28;20056;-80
2023/05/30 10:52:37;;;;;;;6.38;3.95;;;23.30;80.50;;;;;;5075291;28;20024;-79
2023/05/30 10:55:09;;;;;;;7.32;3.92;;;23.40;79.20;;;;;;5080954;28;20048;-80
2023/05/30 10:57:35;;;;;;;5.97;3.70;;;23.50;78.90;;;;;;5073564;28;20047;-82
2023/05/30 11:00:16;;;;;;;10.88;3.42;;;23.60;78.90;;;;;;5072461;28;20025;-77
2023/05/30 11:02:43;;;;;;;9.68;3.88;;;23.80;79.50;;;;;;5069702;28;20428;-82
2023/05/30 11:05:10;;;;;;;12.05;4.00;;;23.90;78.70;;;;;;5071848;28;20054;-82
2023/05/30 11:07:41;;;;;;;7.50;3.60;;;23.80;77.70;;;;;;5073132;28;20020;-79
2023/05/30 11:10:11;;;;;;;8.43;3.97;;;23.90;78.30;;;;;;5071333;28;20370;-81
2023/05/30 11:12:44;;;;;;;10.02;3.63;;;23.80;77.60;;;;;;5080543;28;20033;-83
2023/05/30 11:15:31;;;;;;;9.45;4.35;;;24.00;78.90;;;;;;5071953;28;20145;-81
2023/05/30 11:17:57;;;;;;;7.75;3.97;;;24.00;76.80;;;;;;5066884;28;20056;-78
2023/05/30 11:20:23;;;;;;;5.25;3.70;;;24.10;77.00;;;;;;5062606;28;20063;-80
2023/05/30 11:23:09;;;;;;;7.03;3.58;;;24.10;76.30;;;;;;5055337;28;20031;-83
2023/05/30 11:25:35;;;;;;;10.48;3.95;;;24.00;76.60;;;;;;5052519;28;20040;-83
2023/05/30 11:28:03;;;;;;;10.95;4.35;;;24.20;77.50;;;;;;5075739;28;20039;-77
2023/05/30 11:30:37;;;;;;;9.57;3.85;;;24.50;75.80;;;;;;5072818;28;20032;-82
2023/05/30 11:33:12;;;;;;;7.00;3.25;;;24.40;75.60;;;;;;5071704;28;20020;-78
2023/05/30 11:35:38;;;;;;;13.52;4.00;;;24.20;75.10;;;;;;5072675;28;20016;-81
2023/05/30 11:38:06;;;;;;;9.48;4.10;;;24.20;75.10;;;;;;5067731;28;20039;-81
2023/05/30 11:40:31;;;;;;;8.32;3.92;;;24.00;76.10;;;;;;5072494;28;20021;-80
2023/05/30 11:42:58;;;;;;;8.27;4.05;;;24.10;74.00;;;;;;5073153;28;20027;-77
2023/05/30 11:45:30;;;;;;;7.97;3.83;;;24.30;74.40;;;;;;5074228;28;20107;-79
2023/05/30 11:48:06;;;;;;;11.85;4.05;;;24.10;74.60;;;;;;5073399;28;20042;-79
2023/05/30 11:50:42;;;;;;;9.25;3.90;;;24.20;75.40;;;;;;5077271;28;20090;-79
2023/05/30 11:53:17;;;;;;;6.72;4.25;;;24.40;73.90;;;;;;5073529;28;20461;-78
2023/05/30 11:55:46;;;;;;;7.07;3.80;;;24.30;72.50;;;;;;5069677;28;20469;-82
2023/05/30 11:58:16;;;;;;;7.32;3.90;;;24.10;72.70;;;;;;5074940;28;20374;-81
2023/05/30 12:00:42;;;;;;;7.97;3.78;;;23.90;73.90;;;;;;5063843;28;20060;-80
2023/05/30 12:03:18;;;;;;;7.65;3.50;;;23.70;74.00;;;;;;5070962;28;20039;-80
2023/05/30 12:05:45;;;;;;;6.35;3.47;;;23.80;73.80;;;;;;5066205;28;20159;-81
2023/05/30 12:08:13;;;;;;;9.40;3.60;;;24.10;73.20;;;;;;5066746;28;20028;-82
2023/05/30 12:10:38;;;;;;;5.85;3.40;;;24.50;73.70;;;;;;5068324;28;20107;-80
2023/05/30 12:13:04;;;;;;;11.10;4.03;;;24.70;71.40;;;;;;5070919;28;20082;-80
2023/05/30 12:15:29;;;;;;;11.85;4.00;;;24.80;72.00;;;;;;5073190;28;20406;-81
2023/05/30 12:17:55;;;;;;;8.73;3.75;;;24.90;72.40;;;;;;5072441;28;20385;-81
2023/05/30 12:20:21;;;;;;;6.47;3.35;;;24.90;71.50;;;;;;5079283;28;20086;-79
2023/05/30 12:22:47;;;;;;;7.93;3.63;;;25.10;71.60;;;;;;5089839;28;20040;-79
2023/05/30 12:25:13;;;;;;;6.40;3.53;;;25.20;70.30;;;;;;5086203;28;20029;-82
2023/05/30 12:27:44;;;;;;;5.95;3.65;;;25.10;70.50;;;;;;5074399;28;20032;-80
2023/05/30 12:30:17;;;;;;;7.55;3.67;;;25.20;70.00;;;;;;5088625;28;20023;-80
2023/05/30 12:32:44;;;;;;;8.48;3.40;;;25.20;70.70;;;;;;5086533;28;20035;-81
2023/05/30 12:35:11;;;;;;;6.30;3.75;;;25.30;69.50;;;;;;5090198;28;19993;-81
2023/05/30 12:37:36;;;;;;;7.70;3.42;;;25.20;69.70;;;;;;5093006;28;20067;-82
2023/05/30 12:40:05;;;;;;;7.78;3.40;;;25.10;69.60;;;;;;5076029;28;20372;-81
2023/05/30 12:42:32;;;;;;;11.43;3.58;;;25.10;69.90;;;;;;5072269;28;20095;-83
2023/05/30 12:45:05;;;;;;;5.60;3.30;;;25.30;70.30;;;;;;5067810;28;20024;-78
2023/05/30 12:47:31;;;;;;;8.57;4.05;;;25.60;71.10;;;;;;5071805;28;20079;-84
2023/05/30 12:49:57;;;;;;;8.23;3.55;;;26.00;70.20;;;;;;5071017;28;20021;-84
2023/05/30 12:52:25;;;;;;;6.38;3.50;;;26.20;69.50;;;;;;5053353;28;20031;-84
2023/05/30 12:54:51;;;;;;;6.47;3.42;;;26.30;68.40;;;;;;5081184;28;20026;-76
2023/05/30 12:57:19;;;;;;;8.50;3.72;;;26.60;67.00;;;;;;5052544;28;20533;-79
2023/05/30 12:59:44;;;;;;;5.35;3.10;;;26.50;66.90;;;;;;5071050;28;20036;-80
2023/05/30 13:02:10;;;;;;;9.48;3.60;;;26.50;67.90;;;;;;5070089;28;20036;-79